Southend — A8XQ4 — position and weather

sailwx.info

Track history (hours):
 
Tides and Currents Weather Stations Pressure Air Temp Water Temp Dewpoint Dewpoint Depression Visibility Wind Speed Wind Dir Waves Ship Positions

Southend

Last reported at 2017-May-09 14:56 UTC. Time now 2017-Jun-29 07:37 UTC.
Position N 01°54' E 102°22'.
Warning: this ship's position is 50 days out of date.

Length 187 m; draft 11.2 m.

Type: Cargo ship. MMSI: 636017652.

Date/timePositionNaut miles runAvg speedWind from/ knotsBaromVisibWave heightAir tempDewpointWater temp
2017-May-09 14:56N 01°54' E 102°22'1011.0
2017-May-09 14:00N 01°50' E 102°32'910.5
2017-May-09 13:09N 01°46' E 102°40'5911.3
2017-May-09 07:54N 01°13' E 103°29'612.0
2017-May-09 07:24N 01°12' E 103°35'511.5
2017-May-09 06:56N 01°11' E 103°40'510.7
2017-May-09 06:30N 01°09' E 103°44'510.2
2017-May-09 05:58N 01°11' E 103°49'4 9.0
2017-May-09 05:30N 01°13' E 103°53'4 8.8
2017-May-09 05:00N 01°14' E 103°57'4 7.7
2017-May-09 04:30N 01°16' E 104°00'1 1.5
2017-May-09 03:37N 01°17' E 104°00'0 0.3
2017-May-09 03:25N 01°17' E 104°00'0 0.0
2017-May-09 02:58N 01°17' E 104°00'0 0.0
2017-May-09 02:28N 01°17' E 104°00'0 0.0
2017-May-09 01:58N 01°17' E 104°00'0 0.0
2017-May-09 00:37N 01°17' E 104°00'0 0.0
2017-May-09 00:28N 01°17' E 104°00'0 0.0
2017-May-08 23:40N 01°17' E 104°00'0 0.0
2017-May-08 23:28N 01°17' E 104°00'0 0.1
2017-May-08 22:10N 01°17' E 104°00'0 0.0
2017-May-08 20:19N 01°17' E 104°00'0 0.0
2017-May-08 19:55N 01°17' E 104°00'0 0.0
2017-May-08 19:19N 01°17' E 104°00'0 0.0
2017-May-08 17:31N 01°17' E 104°00'0 0.0
2017-May-08 17:28N 01°17' E 104°00'0 0.0
2017-May-08 16:22N 01°17' E 104°00'0 0.1
2017-May-08 15:37N 01°17' E 104°00'0 0.2
2017-May-08 15:19N 01°17' E 104°00'0 0.2
2017-May-08 14:49N 01°17' E 104°00'0 0.2
2017-May-08 14:28N 01°17' E 103°60'1 0.9
2017-May-08 13:28N 01°17' E 103°59'2 3.9
2017-May-08 13:00N 01°16' E 103°58'2 3.8
2017-May-08 12:30N 01°16' E 103°60'  
Track history (hours):
 
Tides and Currents Weather Stations Pressure Air Temp Water Temp Dewpoint Dewpoint Depression Visibility Wind Speed Wind Dir Waves Ship Positions

Southend

Last reported at 2017-May-09 14:56 UTC. Time now 2017-Jun-29 07:37 UTC.
Position N 01°54' E 102°22'.
Warning: this ship's position is 50 days out of date.

Length 187 m; draft 11.2 m.

Type: Cargo ship. MMSI: 636017652.

Date/timePositionNaut miles runAvg speedWind from/ knotsBaromVisibWave heightAir tempDewpointWater temp
2017-May-09 14:56N 01°54' E 102°22'1011.0
2017-May-09 14:00N 01°50' E 102°32'910.5
2017-May-09 13:09N 01°46' E 102°40'5911.3
2017-May-09 07:54N 01°13' E 103°29'612.0
2017-May-09 07:24N 01°12' E 103°35'511.5
2017-May-09 06:56N 01°11' E 103°40'510.7
2017-May-09 06:30N 01°09' E 103°44'510.2
2017-May-09 05:58N 01°11' E 103°49'4 9.0
2017-May-09 05:30N 01°13' E 103°53'4 8.8
2017-May-09 05:00N 01°14' E 103°57'4 7.7
2017-May-09 04:30N 01°16' E 104°00'1 1.5
2017-May-09 03:37N 01°17' E 104°00'0 0.3
2017-May-09 03:25N 01°17' E 104°00'0 0.0
2017-May-09 02:58N 01°17' E 104°00'0 0.0
2017-May-09 02:28N 01°17' E 104°00'0 0.0
2017-May-09 01:58N 01°17' E 104°00'0 0.0
2017-May-09 00:37N 01°17' E 104°00'0 0.0
2017-May-09 00:28N 01°17' E 104°00'0 0.0
2017-May-08 23:40N 01°17' E 104°00'0 0.0
2017-May-08 23:28N 01°17' E 104°00'0 0.1
2017-May-08 22:10N 01°17' E 104°00'0 0.0
2017-May-08 20:19N 01°17' E 104°00'0 0.0
2017-May-08 19:55N 01°17' E 104°00'0 0.0
2017-May-08 19:19N 01°17' E 104°00'0 0.0
2017-May-08 17:31N 01°17' E 104°00'0 0.0
2017-May-08 17:28N 01°17' E 104°00'0 0.0
2017-May-08 16:22N 01°17' E 104°00'0 0.1
2017-May-08 15:37N 01°17' E 104°00'0 0.2
2017-May-08 15:19N 01°17' E 104°00'0 0.2
2017-May-08 14:49N 01°17' E 104°00'0 0.2
2017-May-08 14:28N 01°17' E 103°60'1 0.9
2017-May-08 13:28N 01°17' E 103°59'2 3.9
2017-May-08 13:00N 01°16' E 103°58'2 3.8
2017-May-08 12:30N 01°16' E 103°60'  

Dump ship's entire track history